createdAt,value
2018-07-11T00:01:39.268Z,4.80
2018-07-11T00:04:07.853Z,4.43
2018-07-11T00:06:36.444Z,4.40
2018-07-11T00:09:05.424Z,4.60
2018-07-11T00:11:34.024Z,4.10
2018-07-11T00:14:02.612Z,4.83
2018-07-11T00:16:31.192Z,3.67
2018-07-11T00:18:59.764Z,4.60
2018-07-11T00:21:28.354Z,4.37
2018-07-11T00:23:56.960Z,5.10
2018-07-11T00:26:25.576Z,3.80
2018-07-11T00:28:54.164Z,4.80
2018-07-11T00:31:22.744Z,5.10
2018-07-11T00:33:51.305Z,4.80
2018-07-11T00:36:19.896Z,4.37
2018-07-11T00:38:48.491Z,4.90
2018-07-11T00:41:17.150Z,5.60
2018-07-11T00:43:45.760Z,5.27
2018-07-11T00:46:17.017Z,4.80
2018-07-11T00:48:46.479Z,4.60
2018-07-11T00:51:15.053Z,5.30
2018-07-11T00:53:43.633Z,5.87
2018-07-11T00:56:12.353Z,5.23
2018-07-11T00:58:45.651Z,5.73
2018-07-11T01:01:15.702Z,4.60
2018-07-11T01:03:49.872Z,5.37
2018-07-11T01:06:19.404Z,5.80
2018-07-11T01:08:51.316Z,6.80
2018-07-11T01:11:19.976Z,5.10
2018-07-11T01:13:49.371Z,5.47
2018-07-11T01:16:19.332Z,4.47
2018-07-11T01:19:00.579Z,5.60
2018-07-11T01:21:29.800Z,5.97
2018-07-11T01:24:02.312Z,4.60
2018-07-11T01:26:32.943Z,5.30
2018-07-11T01:29:01.505Z,5.00
2018-07-11T01:31:30.075Z,5.27
2018-07-11T01:33:59.174Z,6.40
2018-07-11T01:36:28.162Z,5.37
2018-07-11T01:38:57.213Z,6.83
2018-07-11T01:41:25.782Z,6.73
2018-07-11T01:43:54.363Z,5.77
2018-07-11T01:46:22.934Z,6.83
2018-07-11T01:48:51.587Z,5.90
2018-07-11T01:51:20.660Z,6.10
2018-07-11T01:53:49.211Z,5.87
2018-07-11T01:56:17.833Z,6.93
2018-07-11T01:58:47.501Z,5.80
2018-07-11T02:01:16.974Z,6.00
2018-07-11T02:03:45.572Z,5.80
2018-07-11T02:06:14.193Z,8.07
2018-07-11T02:08:43.331Z,7.27
2018-07-11T02:11:12.443Z,7.37
2018-07-11T02:13:41.076Z,8.00
2018-07-11T02:16:09.720Z,7.60
2018-07-11T02:18:38.315Z,7.50
2018-07-11T02:21:07.100Z,7.43
2018-07-11T02:23:38.679Z,6.40
2018-07-11T02:26:07.361Z,8.83
2018-07-11T02:28:35.928Z,8.73
2018-07-11T02:31:05.058Z,8.40
2018-07-11T02:33:33.660Z,10.53
2018-07-11T02:36:02.227Z,7.80
2018-07-11T02:38:30.796Z,11.27
2018-07-11T02:40:59.443Z,11.10
2018-07-11T02:43:28.005Z,16.93
2018-07-11T02:45:56.643Z,14.03
2018-07-11T02:48:25.484Z,10.43
2018-07-11T02:50:54.136Z,10.73
2018-07-11T02:53:24.343Z,11.60
2018-07-11T02:55:53.868Z,14.03
2018-07-11T02:58:22.468Z,19.37
2018-07-11T03:00:51.194Z,23.37
2018-07-11T03:03:20.028Z,13.67
2018-07-11T03:05:48.827Z,9.30
2018-07-11T03:08:18.204Z,7.07
2018-07-11T03:10:47.184Z,5.73
2018-07-11T03:13:19.091Z,5.27
2018-07-11T03:15:47.633Z,5.60
2018-07-11T03:18:16.194Z,5.20
2018-07-11T03:20:44.739Z,4.77
2018-07-11T03:23:13.380Z,5.50
2018-07-11T03:25:41.992Z,4.27
2018-07-11T03:28:10.582Z,4.70
2018-07-11T03:30:39.165Z,4.73
2018-07-11T03:33:07.819Z,4.23
2018-07-11T03:35:36.378Z,4.83
2018-07-11T03:38:04.983Z,4.90
2018-07-11T03:40:33.571Z,5.13
2018-07-11T03:43:02.166Z,5.03
2018-07-11T03:45:30.728Z,4.80
2018-07-11T03:47:59.316Z,6.17
2018-07-11T03:50:27.917Z,5.10
2018-07-11T03:52:56.528Z,5.10
2018-07-11T03:55:25.055Z,6.20
2018-07-11T03:57:53.597Z,6.37
2018-07-11T04:00:24.849Z,5.43
2018-07-11T04:02:53.673Z,4.27
2018-07-11T04:05:22.556Z,5.80
2018-07-11T04:07:51.179Z,5.20
2018-07-11T04:10:19.860Z,4.87
2018-07-11T04:12:52.044Z,4.73
2018-07-11T04:15:20.617Z,6.03
2018-07-11T04:17:49.183Z,5.10
2018-07-11T04:20:17.795Z,5.53
2018-07-11T04:22:46.340Z,5.73
2018-07-11T04:25:15.039Z,6.73
2018-07-11T04:27:43.624Z,5.00
2018-07-11T04:30:12.189Z,5.50
2018-07-11T04:32:40.951Z,5.50
2018-07-11T04:35:09.636Z,9.53
2018-07-11T04:37:51.328Z,13.30
2018-07-11T04:40:20.060Z,13.53
2018-07-11T04:42:48.645Z,10.60
2018-07-11T04:45:17.278Z,11.50
2018-07-11T04:47:45.871Z,10.67
2018-07-11T04:50:14.488Z,8.30
2018-07-11T04:52:43.888Z,10.37
2018-07-11T04:55:12.722Z,9.93
2018-07-11T04:57:41.279Z,8.40
2018-07-11T05:00:09.884Z,10.27
2018-07-11T05:02:38.412Z,9.67
2018-07-11T05:05:07.058Z,8.40
2018-07-11T05:07:35.635Z,7.90
2018-07-11T05:10:04.264Z,6.43
2018-07-11T05:12:32.843Z,6.70
2018-07-11T05:15:01.417Z,8.10
2018-07-11T05:17:30.036Z,6.47
2018-07-11T05:19:58.672Z,7.20
2018-07-11T05:22:27.262Z,7.00
2018-07-11T05:24:55.820Z,7.07
2018-07-11T05:27:24.388Z,7.70
2018-07-11T05:29:52.925Z,6.90
2018-07-11T05:32:21.505Z,7.30
2018-07-11T05:34:50.052Z,8.10
2018-07-11T05:37:18.618Z,9.10
2018-07-11T05:39:47.181Z,9.20
2018-07-11T05:42:15.792Z,10.97
2018-07-11T05:44:44.343Z,11.33
2018-07-11T05:47:13.068Z,10.60
2018-07-11T05:49:41.622Z,10.10
2018-07-11T05:52:10.295Z,11.20
2018-07-11T05:54:38.840Z,10.50
2018-07-11T05:57:07.444Z,10.73
2018-07-11T05:59:36.106Z,11.83
2018-07-11T06:02:04.828Z,11.80
2018-07-11T06:04:33.380Z,11.63
2018-07-11T06:07:01.976Z,12.73
2018-07-11T06:09:30.556Z,10.70
2018-07-11T06:11:59.121Z,13.10
2018-07-11T06:14:28.700Z,12.30
2018-07-11T06:16:57.789Z,11.57
2018-07-11T06:19:26.340Z,11.97
2018-07-11T06:21:54.945Z,13.97
2018-07-11T06:24:23.612Z,12.60
2018-07-11T06:26:52.174Z,14.60
2018-07-11T06:29:20.757Z,14.30
2018-07-11T06:31:49.284Z,12.40
2018-07-11T06:34:17.885Z,14.43
2018-07-11T06:36:46.623Z,14.33
2018-07-11T06:39:15.481Z,13.83
2018-07-11T06:41:44.012Z,14.17
2018-07-11T06:44:12.575Z,13.10
2018-07-11T06:46:41.184Z,12.20
2018-07-11T06:49:09.827Z,12.53
2018-07-11T06:51:38.418Z,11.63
2018-07-11T06:54:07.363Z,11.27
2018-07-11T06:56:35.939Z,9.93
2018-07-11T06:59:04.601Z,10.10
2018-07-11T07:01:33.184Z,10.13
2018-07-11T07:04:01.734Z,9.93
2018-07-11T07:06:30.340Z,10.23
2018-07-11T07:08:58.951Z,10.93
2018-07-11T07:11:27.593Z,9.33
2018-07-11T07:13:56.209Z,10.43
2018-07-11T07:16:24.847Z,10.80
2018-07-11T07:18:53.389Z,9.77
2018-07-11T07:21:21.961Z,11.00
2018-07-11T07:23:50.579Z,9.60
2018-07-11T07:26:19.200Z,10.87
2018-07-11T07:28:47.728Z,8.67
2018-07-11T07:31:16.363Z,10.00
2018-07-11T07:33:44.998Z,9.37
2018-07-11T07:36:13.816Z,7.97
2018-07-11T07:38:44.259Z,8.13
2018-07-11T07:41:12.892Z,8.57
2018-07-11T07:43:42.945Z,8.17
2018-07-11T07:46:11.655Z,7.70
2018-07-11T07:48:40.246Z,8.87
2018-07-11T07:51:09.914Z,8.77
2018-07-11T07:53:38.492Z,10.30
2018-07-11T07:56:07.206Z,10.60
2018-07-11T07:58:35.772Z,9.70
2018-07-11T08:01:04.528Z,9.17
2018-07-11T08:03:35.951Z,7.73
2018-07-11T08:06:04.540Z,8.70
2018-07-11T08:08:33.544Z,7.57
2018-07-11T08:11:02.244Z,7.27
2018-07-11T08:13:31.044Z,9.70
2018-07-11T08:15:59.616Z,8.50
2018-07-11T08:18:28.228Z,9.03
2018-07-11T08:20:56.846Z,8.77
2018-07-11T08:23:45.229Z,9.50
2018-07-11T08:26:25.579Z,9.57
2018-07-11T08:30:06.832Z,9.17
2018-07-11T08:32:42.104Z,10.50
2018-07-11T08:39:28.783Z,9.60
2018-07-11T08:42:12.698Z,9.50
2018-07-11T08:45:05.920Z,9.43
2018-07-11T08:47:44.683Z,10.10
2018-07-11T08:50:29.535Z,10.60
2018-07-11T08:53:11.762Z,11.70
2018-07-11T08:57:57.376Z,11.80
2018-07-11T09:00:48.187Z,9.03
2018-07-11T09:03:33.866Z,10.23
2018-07-11T09:06:14.363Z,10.40
2018-07-11T09:09:01.324Z,9.63
2018-07-11T09:11:41.004Z,10.87
2018-07-11T09:16:25.284Z,10.37
2018-07-11T09:19:03.809Z,9.53
2018-07-11T09:21:44.981Z,10.57
2018-07-11T09:24:22.444Z,9.80
2018-07-11T09:26:51.274Z,11.27
2018-07-11T09:29:19.924Z,11.00
2018-07-11T09:31:48.512Z,9.33
2018-07-11T09:34:17.066Z,10.40
2018-07-11T09:36:45.637Z,9.27
2018-07-11T09:39:14.252Z,8.80
2018-07-11T09:41:42.886Z,9.93
2018-07-11T09:44:11.589Z,8.30
2018-07-11T09:46:40.226Z,9.67
2018-07-11T09:49:09.264Z,9.03
2018-07-11T09:51:37.980Z,10.40
2018-07-11T09:54:06.572Z,8.53
2018-07-11T09:56:35.176Z,8.07
2018-07-11T09:59:03.865Z,8.00
2018-07-11T10:01:32.461Z,9.03
2018-07-11T10:04:01.164Z,9.17
2018-07-11T10:06:30.052Z,9.53
2018-07-11T10:08:59.692Z,8.53
2018-07-11T10:11:28.298Z,9.67
2018-07-11T10:13:56.950Z,9.57
2018-07-11T10:16:25.624Z,10.43
2018-07-11T10:18:58.455Z,9.63
2018-07-11T10:21:27.557Z,9.80
2018-07-11T10:23:56.120Z,8.83
2018-07-11T10:26:25.526Z,8.70
2018-07-11T10:28:54.592Z,8.50
2018-07-11T10:31:23.644Z,9.00
2018-07-11T10:33:52.256Z,9.13
2018-07-11T10:36:20.983Z,9.40
2018-07-11T10:38:49.696Z,8.13
2018-07-11T10:41:18.538Z,8.17
2018-07-11T10:43:47.392Z,8.80
2018-07-11T10:46:16.126Z,8.10
2018-07-11T10:48:44.724Z,8.30
2018-07-11T10:51:16.009Z,8.70
2018-07-11T10:53:44.559Z,8.03
2018-07-11T10:56:13.144Z,8.70
2018-07-11T10:58:41.760Z,7.00
2018-07-11T11:01:10.391Z,9.10
2018-07-11T11:03:38.944Z,8.40
2018-07-11T11:06:07.492Z,8.37
2018-07-11T11:08:36.094Z,10.50
2018-07-11T11:11:04.704Z,9.37
2018-07-11T11:13:33.350Z,10.30
2018-07-11T11:16:02.081Z,10.67
2018-07-11T11:18:30.638Z,11.10
2018-07-11T11:20:59.245Z,9.80
2018-07-11T11:23:27.814Z,10.50
2018-07-11T11:25:56.357Z,9.97
2018-07-11T11:28:25.013Z,10.30
2018-07-11T11:30:53.617Z,11.00
2018-07-11T11:33:22.242Z,10.63
2018-07-11T11:35:50.793Z,8.77
2018-07-11T11:38:19.620Z,10.60
2018-07-11T11:40:48.912Z,11.33
2018-07-11T11:43:17.589Z,11.20
2018-07-11T11:45:46.168Z,11.77
2018-07-11T11:48:14.776Z,11.53
2018-07-11T11:50:43.369Z,10.37
2018-07-11T11:53:12.409Z,10.63
2018-07-11T11:55:41.023Z,12.73
2018-07-11T11:58:09.623Z,9.87
2018-07-11T12:00:38.184Z,9.53
2018-07-11T12:03:07.300Z,11.13
2018-07-11T12:05:35.880Z,10.17
2018-07-11T12:08:04.480Z,10.30
2018-07-11T12:10:33.060Z,10.90
2018-07-11T12:13:01.730Z,11.87
2018-07-11T12:15:30.392Z,11.60
2018-07-11T12:17:58.996Z,11.30
2018-07-11T12:20:27.850Z,12.27
2018-07-11T12:22:56.413Z,12.43
2018-07-11T12:25:25.096Z,12.10
2018-07-11T12:27:53.909Z,12.13
2018-07-11T12:30:22.980Z,11.50
2018-07-11T12:32:52.008Z,11.20
2018-07-11T12:35:20.715Z,12.00
2018-07-11T12:37:49.839Z,12.30
2018-07-11T12:40:18.406Z,12.30
2018-07-11T12:42:47.042Z,13.63
2018-07-11T12:45:15.677Z,12.50
2018-07-11T12:49:55.075Z,11.77
2018-07-11T12:52:23.784Z,12.03
2018-07-11T12:54:52.381Z,12.70
2018-07-11T12:57:21.096Z,11.90
2018-07-11T12:59:49.752Z,13.97
2018-07-11T13:02:18.500Z,13.40
2018-07-11T13:04:47.641Z,12.90
2018-07-11T13:07:16.369Z,12.63
2018-07-11T13:09:44.960Z,11.53
2018-07-11T13:12:13.559Z,11.33
2018-07-11T13:14:42.229Z,12.80
2018-07-11T13:17:11.781Z,12.87
2018-07-11T13:19:40.437Z,13.67
2018-07-11T13:22:09.033Z,14.10
2018-07-11T13:24:37.620Z,13.00
2018-07-11T13:27:07.021Z,13.00
2018-07-11T13:29:35.668Z,13.00
2018-07-11T13:32:04.625Z,15.63
2018-07-11T13:34:33.272Z,13.70
2018-07-11T13:37:01.918Z,15.43
2018-07-11T13:39:30.864Z,13.70
2018-07-11T13:41:59.483Z,14.00
2018-07-11T13:44:28.080Z,16.07
2018-07-11T13:46:56.634Z,11.70
2018-07-11T13:49:25.204Z,12.37
2018-07-11T13:51:53.912Z,11.87
2018-07-11T13:54:22.545Z,12.57
2018-07-11T13:56:51.568Z,12.30
2018-07-11T13:59:20.202Z,10.33
2018-07-11T14:01:48.771Z,10.10
2018-07-11T14:04:17.428Z,10.97
2018-07-11T14:06:46.107Z,9.07
2018-07-11T14:09:15.056Z,10.77
2018-07-11T14:11:44.790Z,8.07
2018-07-11T14:14:14.152Z,8.67
2018-07-11T14:16:43.148Z,9.40
2018-07-11T14:19:16.078Z,8.23
2018-07-11T14:21:44.813Z,7.97
2018-07-11T14:24:14.232Z,8.30
2018-07-11T14:26:43.428Z,8.13
2018-07-11T14:29:12.098Z,7.87
2018-07-11T14:31:40.709Z,8.20
2018-07-11T14:34:09.947Z,9.30
2018-07-11T14:36:38.804Z,7.33
2018-07-11T14:39:08.498Z,7.27
2018-07-11T14:41:37.137Z,8.93
2018-07-11T14:44:05.739Z,8.33
2018-07-11T14:46:35.970Z,9.60
2018-07-11T14:49:05.151Z,8.13
2018-07-11T14:51:33.994Z,10.60
2018-07-11T14:54:02.933Z,9.23
2018-07-11T14:56:31.568Z,10.37
2018-07-11T14:59:00.814Z,9.77
2018-07-11T15:01:29.470Z,9.57
2018-07-11T15:03:58.065Z,11.37
2018-07-11T15:06:26.643Z,10.83
2018-07-11T15:08:56.224Z,10.27
2018-07-11T15:11:25.052Z,10.53
2018-07-11T15:13:53.943Z,11.50
2018-07-11T15:16:22.557Z,10.27
2018-07-11T15:18:51.577Z,9.20
2018-07-11T15:21:20.389Z,7.03
2018-07-11T15:23:49.027Z,8.47
2018-07-11T15:26:17.781Z,8.47
2018-07-11T15:28:46.453Z,7.80
2018-07-11T15:31:15.615Z,7.97
2018-07-11T15:33:44.275Z,8.90
2018-07-11T15:36:13.050Z,7.10
2018-07-11T15:38:41.649Z,7.77
2018-07-11T15:41:11.525Z,7.03
2018-07-11T15:43:41.593Z,6.63
2018-07-11T15:46:10.309Z,6.03
2018-07-11T15:48:38.890Z,6.10
2018-07-11T15:51:07.578Z,5.30
2018-07-11T15:53:36.447Z,6.47
2018-07-11T15:56:04.952Z,6.23
2018-07-11T15:58:37.650Z,4.93
2018-07-11T16:01:09.074Z,6.03
2018-07-11T16:03:47.282Z,5.13
2018-07-11T16:06:16.870Z,5.07
2018-07-11T16:08:51.544Z,5.30
2018-07-11T16:11:20.158Z,6.70
2018-07-11T16:13:49.423Z,5.13
2018-07-11T16:16:18.192Z,6.13
2018-07-11T16:18:46.817Z,5.37
2018-07-11T16:21:15.662Z,6.27
2018-07-11T16:23:44.360Z,5.30
2018-07-11T16:26:13.419Z,5.17
2018-07-11T16:28:42.350Z,5.47
2018-07-11T16:31:11.821Z,6.10
2018-07-11T16:33:40.562Z,5.90
2018-07-11T16:36:09.184Z,5.87
2018-07-11T16:38:37.804Z,6.50
2018-07-11T16:41:06.733Z,6.00
2018-07-11T16:43:35.339Z,6.47
2018-07-11T16:46:04.461Z,6.03
2018-07-11T16:48:33.108Z,6.17
2018-07-11T16:51:01.751Z,6.20
2018-07-11T16:53:30.366Z,5.63
2018-07-11T16:55:58.983Z,6.80
2018-07-11T16:58:30.432Z,6.20
2018-07-11T17:01:00.347Z,5.00
2018-07-11T17:03:29.772Z,5.70
2018-07-11T17:06:07.052Z,5.60
2018-07-11T17:08:38.140Z,4.80
2018-07-11T17:11:19.630Z,6.10
2018-07-11T17:17:01.856Z,6.83
2018-07-11T17:19:38.311Z,6.10
2018-07-11T17:22:08.629Z,6.07
2018-07-11T17:24:44.319Z,6.20
2018-07-11T17:27:14.529Z,6.60
2018-07-11T17:29:45.882Z,6.53
2018-07-11T17:32:14.632Z,6.07
2018-07-11T17:34:43.256Z,6.50
2018-07-11T17:37:12.391Z,6.90
2018-07-11T17:39:52.200Z,6.27
2018-07-11T17:42:22.284Z,6.47
2018-07-11T17:45:07.377Z,7.13
2018-07-11T17:47:44.640Z,7.80
2018-07-11T17:50:13.229Z,7.27
2018-07-11T17:53:55.160Z,6.87
2018-07-11T17:56:29.088Z,6.80
2018-07-11T17:59:00.910Z,5.77
2018-07-11T18:01:38.782Z,6.77
2018-07-11T18:04:14.045Z,6.07
2018-07-11T18:06:53.028Z,5.43
2018-07-11T18:09:23.730Z,7.40
2018-07-11T18:11:58.231Z,6.90
2018-07-11T18:14:42.928Z,5.30
2018-07-11T18:21:10.063Z,5.63
2018-07-11T18:23:49.385Z,5.80
2018-07-11T18:26:24.471Z,6.07
2018-07-11T18:29:19.255Z,6.17
2018-07-11T18:32:02.490Z,5.30
2018-07-11T18:34:40.880Z,6.20
2018-07-11T18:37:18.073Z,6.80
2018-07-11T18:40:01.578Z,6.00
2018-07-11T18:42:40.646Z,5.97
2018-07-11T18:47:22.287Z,4.50
2018-07-11T18:52:04.550Z,5.93
2018-07-11T18:54:50.079Z,4.97
2018-07-11T18:57:30.317Z,5.83
2018-07-11T19:00:22.032Z,5.33
2018-07-11T19:03:02.705Z,6.50
2018-07-11T19:05:58.356Z,5.80
2018-07-11T19:08:48.764Z,6.57
2018-07-11T19:11:21.720Z,5.50
2018-07-11T19:13:54.396Z,6.40
2018-07-11T19:18:37.526Z,4.57
2018-07-11T19:21:13.874Z,4.97
2018-07-11T19:23:54.350Z,4.97
2018-07-11T19:26:30.233Z,4.77
2018-07-11T19:29:05.867Z,5.77
2018-07-11T19:32:20.548Z,5.07
2018-07-11T19:35:00.791Z,5.27
2018-07-11T19:37:43.798Z,5.90
2018-07-11T19:40:43.938Z,5.57
2018-07-11T19:43:29.900Z,5.30
2018-07-11T19:46:12.528Z,4.57
2018-07-11T19:48:50.741Z,5.23
2018-07-11T19:54:02.293Z,6.40
2018-07-11T19:56:40.745Z,5.40
2018-07-11T19:59:09.342Z,6.23
2018-07-11T20:01:37.936Z,5.27
2018-07-11T20:04:06.607Z,5.50
2018-07-11T20:06:36.294Z,5.53
2018-07-11T20:09:05.920Z,4.93
2018-07-11T20:11:34.524Z,6.03
2018-07-11T20:14:03.112Z,5.37
2018-07-11T20:16:31.776Z,5.97
2018-07-11T20:19:00.609Z,4.63
2018-07-11T20:21:30.424Z,5.40
2018-07-11T20:23:59.080Z,5.77
2018-07-11T20:26:27.657Z,5.53
2018-07-11T20:28:56.304Z,4.67
2018-07-11T20:31:24.924Z,5.10
2018-07-11T20:33:53.529Z,5.93
2018-07-11T20:36:22.154Z,4.80
2018-07-11T20:38:50.787Z,5.53
2018-07-11T20:41:19.564Z,5.30
2018-07-11T20:43:48.272Z,5.30
2018-07-11T20:46:17.049Z,5.27
2018-07-11T20:48:45.599Z,5.70
2018-07-11T20:51:14.388Z,5.23
2018-07-11T20:53:42.979Z,4.97
2018-07-11T20:56:11.618Z,4.63
2018-07-11T20:58:51.373Z,5.90
2018-07-11T21:01:31.865Z,5.63
2018-07-11T21:06:30.429Z,5.50
2018-07-11T21:09:21.294Z,4.73
2018-07-11T21:12:05.081Z,5.77
2018-07-11T21:16:47.646Z,5.03
2018-07-11T21:19:16.390Z,5.30
2018-07-11T21:21:44.949Z,5.13
2018-07-11T21:24:13.987Z,4.30
2018-07-11T21:26:42.535Z,5.10
2018-07-11T21:29:11.244Z,5.00
2018-07-11T21:31:39.832Z,5.63
2018-07-11T21:34:08.389Z,5.80
2018-07-11T21:36:36.993Z,4.60
2018-07-11T21:39:06.091Z,6.27
2018-07-11T21:41:34.866Z,6.00
2018-07-11T21:44:03.428Z,6.10
2018-07-11T21:46:32.084Z,6.30
2018-07-11T21:49:00.655Z,5.67
2018-07-11T21:51:29.207Z,5.40
2018-07-11T21:53:57.763Z,5.23
2018-07-11T21:56:26.416Z,5.70
2018-07-11T21:58:54.979Z,5.37
2018-07-11T22:01:23.537Z,5.57
2018-07-11T22:03:52.093Z,6.47
2018-07-11T22:06:21.542Z,5.70
2018-07-11T22:08:50.178Z,6.37
2018-07-11T22:11:18.855Z,6.93
2018-07-11T22:13:47.828Z,5.20
2018-07-11T22:16:16.408Z,6.37
2018-07-11T22:18:46.160Z,6.53
2018-07-11T22:21:14.604Z,5.97
2018-07-11T22:23:41.928Z,6.40
2018-07-11T22:26:09.209Z,5.87
2018-07-11T22:28:36.511Z,6.93
2018-07-11T22:31:03.887Z,6.20
2018-07-11T22:33:31.180Z,6.53
2018-07-11T22:35:58.474Z,5.83
2018-07-11T22:38:25.808Z,8.20
2018-07-11T22:40:53.089Z,6.67
2018-07-11T22:43:20.383Z,7.27
2018-07-11T22:45:47.694Z,7.07
2018-07-11T22:48:15.059Z,7.33
2018-07-11T22:50:42.343Z,6.80
2018-07-11T22:53:09.821Z,6.70
2018-07-11T22:55:37.143Z,6.80
2018-07-11T22:58:04.456Z,6.20
2018-07-11T23:00:31.778Z,6.10
2018-07-11T23:02:59.073Z,6.20
2018-07-11T23:05:26.435Z,6.77
2018-07-11T23:07:53.731Z,6.20
2018-07-11T23:10:21.024Z,5.73
2018-07-11T23:12:48.350Z,6.60
2018-07-11T23:15:15.668Z,6.60
2018-07-11T23:17:43.267Z,6.87
2018-07-11T23:20:10.629Z,6.07
2018-07-11T23:22:37.980Z,6.93
2018-07-11T23:25:05.347Z,7.40
2018-07-11T23:27:32.933Z,7.90
2018-07-11T23:32:50.411Z,7.90
2018-07-11T23:35:17.708Z,8.00
2018-07-11T23:37:45.036Z,8.10
2018-07-11T23:40:12.466Z,8.80
2018-07-11T23:42:39.780Z,8.27
2018-07-11T23:45:07.104Z,6.43
2018-07-11T23:47:34.416Z,8.43
2018-07-11T23:50:01.702Z,7.40
2018-07-11T23:52:29.023Z,7.80
2018-07-11T23:54:56.321Z,7.43
2018-07-11T23:57:23.610Z,7.17
2018-07-11T23:59:51.036Z,6.93
